Time;durP1;ratioP1;P1;durP2;ratioP2;P2;SDS_P1;SDS_P2;PMS_P1;PMS_P2;Temp;Humidity;BMP_temperature;BMP_pressure;BME280_temperature;BME280_humidity;BME280_pressure;Samples;Min_cycle;Max_cycle;Signal;HPM_P1;HPM_P2
2021/08/07 00:01:59;;;;;;;;;0.50;0.50;;;;;19.58;49.63;100096.53;5080192;28;45256;-58
2021/08/07 00:04:26;;;;;;;;;1.50;1.00;;;;;19.57;49.71;100096.63;5080019;28;45253;-58
2021/08/07 00:06:52;;;;;;;;;0.00;0.00;;;;;19.55;50.11;100093.22;5080015;28;46354;-58
2021/08/07 00:09:17;;;;;;;;;3.25;2.00;;;;;19.52;49.79;100090.72;5080164;28;45401;-57
2021/08/07 00:11:43;;;;;;;;;1.00;0.00;;;;;19.52;49.85;100090.72;5079943;28;45356;-58
2021/08/07 00:14:08;;;;;;;;;1.00;1.00;;;;;19.51;50.11;100089.00;5080513;28;45319;-58
2021/08/07 00:16:33;;;;;;;;;1.00;1.00;;;;;19.49;49.95;100094.44;5083460;28;45932;-58
2021/08/07 00:18:59;;;;;;;;;3.25;2.00;;;;;19.44;50.30;100089.38;5083334;28;45302;-58
2021/08/07 00:21:24;;;;;;;;;2.00;1.00;;;;;19.39;50.25;100080.81;5083563;27;45268;-58
2021/08/07 00:23:49;;;;;;;;;2.00;1.00;;;;;19.40;50.42;100089.69;5083686;28;45468;-57
2021/08/07 00:26:15;;;;;;;;;2.00;0.00;;;;;19.36;50.17;100081.03;5083403;28;45358;-57
2021/08/07 00:28:40;;;;;;;;;2.00;1.00;;;;;19.35;50.31;100083.78;5083439;28;45314;-57
2021/08/07 00:31:05;;;;;;;;;1.50;1.00;;;;;19.32;50.44;100084.84;5083613;27;45422;-57
2021/08/07 00:33:31;;;;;;;;;0.00;0.00;;;;;19.27;50.33;100084.22;5083314;28;46526;-57
2021/08/07 00:35:56;;;;;;;;;4.00;1.50;;;;;19.27;50.32;100079.78;5083255;27;46058;-57
2021/08/07 00:38:21;;;;;;;;;0.50;0.50;;;;;19.27;50.76;100071.78;5083534;28;45354;-57
2021/08/07 00:40:47;;;;;;;;;1.00;1.00;;;;;19.24;50.49;100079.09;5082053;27;45252;-57
2021/08/07 00:43:12;;;;;;;;;1.25;1.00;;;;;19.22;50.25;100078.34;5083357;28;45333;-57
2021/08/07 00:45:39;;;;;;;;;0.00;0.00;;;;;19.20;50.78;100067.78;5083140;28;45250;-57
2021/08/07 00:48:06;;;;;;;;;4.00;0.00;;;;;19.19;50.50;100076.72;5083151;28;45531;-57
2021/08/07 00:50:31;;;;;;;;;1.50;1.00;;;;;19.19;50.42;100075.88;5083027;27;45280;-57
2021/08/07 00:52:57;;;;;;;;;2.00;1.00;;;;;19.12;50.54;100070.91;5083089;28;45174;-57
2021/08/07 00:55:22;;;;;;;;;1.50;1.50;;;;;19.08;51.08;100074.72;5083081;28;45577;-57
2021/08/07 00:57:47;;;;;;;;;2.00;2.00;;;;;19.10;50.74;100067.47;5083050;28;45420;-57
2021/08/07 01:00:13;;;;;;;;;1.00;1.00;;;;;19.08;50.83;100069.41;5083074;27;45425;-57
2021/08/07 01:02:46;;;;;;;;;2.00;2.00;;;;;19.05;50.72;100066.06;5083125;28;45350;-57
2021/08/07 01:05:24;;;;;;;;;0.00;0.00;;;;;19.03;50.88;100068.81;5082817;28;47066;-57
2021/08/07 01:08:16;;;;;;;;;2.00;1.00;;;;;19.01;50.97;100060.06;5082789;28;45284;-57
2021/08/07 01:10:55;;;;;;;;;2.50;1.00;;;;;18.99;50.69;100054.84;5080800;27;45570;-57
2021/08/07 01:13:32;;;;;;;;;1.00;1.00;;;;;18.96;50.79;100059.47;5082527;28;45331;-57
2021/08/07 01:16:25;;;;;;;;;1.25;1.00;;;;;18.94;50.86;100056.91;5082580;28;46203;-57
2021/08/07 01:18:53;;;;;;;;;1.00;1.00;;;;;18.92;50.72;100042.00;5077088;28;45329;-57
2021/08/07 01:21:25;;;;;;;;;0.75;0.75;;;;;18.92;50.85;100049.97;5082475;27;45288;-57
2021/08/07 01:23:58;;;;;;;;;4.25;2.00;;;;;18.90;50.88;100054.50;5081546;28;45454;-57
2021/08/07 01:26:55;;;;;;;;;1.00;1.00;;;;;18.88;51.01;100059.03;5081098;28;46107;-57
2021/08/07 01:29:22;;;;;;;;;2.25;2.25;;;;;18.77;50.93;100044.56;5082383;27;45252;-57
2021/08/07 01:31:49;;;;;;;;;0.75;0.75;;;;;18.80;51.12;100055.06;5082606;27;45663;-57
2021/08/07 01:34:16;;;;;;;;;2.00;1.00;;;;;18.78;51.17;100050.75;5082001;28;45303;-57
2021/08/07 01:36:43;;;;;;;;;2.50;2.00;;;;;18.74;51.34;100047.44;5081238;28;47082;-57
2021/08/07 01:39:09;;;;;;;;;1.00;1.00;;;;;18.75;51.17;100045.63;5082193;28;45491;-57
2021/08/07 01:41:35;;;;;;;;;1.00;0.00;;;;;18.73;50.95;100040.38;5082389;28;45381;-57
2021/08/07 01:44:01;;;;;;;;;1.75;1.50;;;;;18.72;51.42;100049.31;5082156;28;45247;-57
2021/08/07 01:46:33;;;;;;;;;1.50;1.50;;;;;18.71;50.92;100044.94;5080850;28;45443;-57
2021/08/07 01:49:16;;;;;;;;;1.25;1.25;;;;;18.68;51.33;100045.13;5081775;28;45322;-57
2021/08/07 01:51:48;;;;;;;;;0.00;0.00;;;;;18.65;51.19;100042.63;5082152;27;45495;-57
2021/08/07 01:54:19;;;;;;;;;3.25;0.00;;;;;18.64;51.48;100038.25;5082281;28;45469;-57
2021/08/07 01:56:45;;;;;;;;;2.00;1.25;;;;;18.60;51.17;100031.41;5080452;28;46213;-57
2021/08/07 01:59:14;;;;;;;;;2.00;0.50;;;;;18.59;51.11;100035.88;5082072;28;45391;-57
2021/08/07 02:01:41;;;;;;;;;1.50;1.50;;;;;18.57;51.59;100029.78;5082003;28;45175;-57
2021/08/07 02:04:08;;;;;;;;;3.00;1.00;;;;;18.53;51.40;100022.94;5081765;28;45472;-57
2021/08/07 02:06:35;;;;;;;;;0.00;0.00;;;;;18.56;51.61;100032.53;5081810;28;45295;-57
2021/08/07 02:09:01;;;;;;;;;1.50;0.00;;;;;18.54;51.69;100031.75;5082005;28;45433;-57
2021/08/07 02:11:27;;;;;;;;;1.75;1.00;;;;;18.49;51.67;100027.56;5080806;27;45313;-57
2021/08/07 02:13:54;;;;;;;;;1.00;1.00;;;;;18.50;51.71;100025.75;5081774;28;45528;-57
2021/08/07 02:16:21;;;;;;;;;4.00;2.00;;;;;18.48;51.61;100025.00;5081560;28;46203;-57
2021/08/07 02:18:47;;;;;;;;;1.00;1.00;;;;;18.47;51.45;100020.63;5081589;28;45247;-57
2021/08/07 02:21:14;;;;;;;;;0.00;0.00;;;;;18.45;51.53;100023.41;5081643;28;45274;-56
2021/08/07 02:23:40;;;;;;;;;1.50;1.50;;;;;18.40;51.81;100013.97;5081671;28;45453;-57
2021/08/07 02:26:07;;;;;;;;;1.25;1.00;;;;;18.40;51.71;100020.16;5081469;28;46057;-57
2021/08/07 02:28:33;;;;;;;;;1.25;1.25;;;;;18.41;51.56;100015.69;5081557;28;45224;-56
2021/08/07 02:31:01;;;;;;;;;1.50;1.50;;;;;18.39;51.57;100022.88;5081557;27;45176;-56
2021/08/07 02:33:27;;;;;;;;;1.00;1.00;;;;;18.37;51.99;100024.78;5081232;28;45483;-57
2021/08/07 02:35:56;;;;;;;;;1.75;1.75;;;;;18.27;51.93;100006.69;5081289;28;45318;-57
2021/08/07 02:38:23;;;;;;;;;0.00;0.00;;;;;18.31;51.87;100010.91;5080851;28;45333;-57
2021/08/07 02:40:49;;;;;;;;;2.75;1.00;;;;;18.30;51.81;100010.97;5081394;27;45500;-57
2021/08/07 02:43:16;;;;;;;;;2.25;0.75;;;;;18.28;51.76;99997.75;5081278;28;45708;-57
2021/08/07 02:45:43;;;;;;;;;2.00;0.75;;;;;18.28;51.92;99996.91;5081170;28;46361;-57
2021/08/07 02:48:09;;;;;;;;;2.25;2.00;;;;;18.27;51.98;99997.88;5081045;28;45430;-57
2021/08/07 02:50:35;;;;;;;;;2.00;2.00;;;;;18.26;52.25;100002.31;5081121;28;45288;-56
2021/08/07 02:53:02;;;;;;;;;1.75;1.00;;;;;18.26;51.86;100001.47;5081156;28;45595;-57
2021/08/07 02:55:27;;;;;;;;;3.00;1.00;;;;;18.26;52.09;99993.47;5081093;28;45424;-57
2021/08/07 02:57:53;;;;;;;;;1.00;1.00;;;;;18.23;52.05;99996.34;5080906;28;45341;-57
2021/08/07 03:00:20;;;;;;;;;3.50;1.00;;;;;18.21;51.92;99996.41;5081171;28;45484;-58
2021/08/07 03:02:46;;;;;;;;;2.75;1.00;;;;;18.21;52.13;99984.91;5080976;28;45245;-57
2021/08/07 03:05:12;;;;;;;;;2.00;1.50;;;;;18.20;52.14;99992.06;5080738;28;47225;-58
2021/08/07 03:07:38;;;;;;;;;1.00;1.00;;;;;18.15;52.46;99986.13;5081234;28;45227;-57
2021/08/07 03:10:08;;;;;;;;;2.00;2.00;;;;;18.16;52.19;99988.72;5079645;27;45383;-57
2021/08/07 03:12:35;;;;;;;;;3.00;2.00;;;;;18.15;52.46;99989.66;5080706;28;45229;-57
2021/08/07 03:15:01;;;;;;;;;1.75;1.75;;;;;18.14;52.39;99987.94;5079467;28;45255;-57
2021/08/07 03:17:26;;;;;;;;;1.00;1.00;;;;;18.12;52.52;99978.34;5079490;28;45397;-58
2021/08/07 03:19:52;;;;;;;;;4.00;2.50;;;;;18.11;52.46;99985.47;5080662;28;45239;-58
2021/08/07 03:22:18;;;;;;;;;4.25;3.25;;;;;18.07;52.77;99973.28;5079439;28;45425;-57
2021/08/07 03:24:44;;;;;;;;;2.00;1.00;;;;;17.97;52.65;99961.47;5079363;28;47067;-58
2021/08/07 03:27:10;;;;;;;;;1.00;1.00;;;;;18.04;52.66;99970.81;5080792;28;45366;-57
2021/08/07 03:29:35;;;;;;;;;2.00;1.50;;;;;17.99;52.80;99971.06;5080560;28;45493;-58
2021/08/07 03:32:01;;;;;;;;;1.00;1.00;;;;;17.97;52.79;99970.28;5080635;27;45236;-58
2021/08/07 03:34:26;;;;;;;;;1.75;1.75;;;;;17.97;52.91;99969.44;5080122;28;46282;-58
2021/08/07 03:36:52;;;;;;;;;3.50;3.00;;;;;17.96;52.81;99970.38;5080715;28;45362;-57
2021/08/07 03:39:18;;;;;;;;;3.00;2.00;;;;;17.94;52.74;99966.97;5080610;28;45220;-58
2021/08/07 03:41:43;;;;;;;;;2.00;1.00;;;;;17.89;53.10;99959.22;5080515;28;45426;-57
2021/08/07 03:44:08;;;;;;;;;2.00;1.75;;;;;17.84;53.20;99943.53;5078976;28;48070;-58
2021/08/07 03:46:34;;;;;;;;;2.00;2.00;;;;;17.84;53.18;99956.81;5079151;28;45235;-58
2021/08/07 03:48:59;;;;;;;;;2.75;2.00;;;;;17.83;53.46;99956.91;5079198;28;45146;-57
2021/08/07 03:51:24;;;;;;;;;2.00;2.00;;;;;17.81;53.29;99957.00;5080452;27;45399;-57
2021/08/07 03:53:50;;;;;;;;;4.00;1.50;;;;;17.80;53.24;99952.63;5078781;28;47194;-58
2021/08/07 03:56:15;;;;;;;;;3.25;2.00;;;;;17.73;53.30;99935.31;5080397;28;45227;-58
2021/08/07 03:58:40;;;;;;;;;3.25;1.75;;;;;17.78;52.93;99943.88;5080292;28;45424;-58
2021/08/07 04:01:06;;;;;;;;;3.00;2.50;;;;;17.79;53.44;99939.44;5080297;28;45351;-58
2021/08/07 04:03:31;;;;;;;;;2.00;2.00;;;;;17.78;53.34;99938.56;5078611;28;46829;-58
2021/08/07 04:05:56;;;;;;;;;4.75;3.25;;;;;17.77;53.50;99941.31;5080236;28;45246;-57
2021/08/07 04:08:22;;;;;;;;;2.00;1.00;;;;;17.75;53.67;99932.56;5080228;28;45406;-58
2021/08/07 04:10:47;;;;;;;;;1.50;1.25;;;;;17.73;53.44;99939.78;5080228;28;45488;-57
2021/08/07 04:13:12;;;;;;;;;4.25;2.00;;;;;17.70;53.56;99941.66;5079824;28;46088;-57
2021/08/07 04:15:38;;;;;;;;;1.00;1.00;;;;;17.73;53.56;99935.31;5080094;28;45264;-57
2021/08/07 04:18:04;;;;;;;;;5.00;2.25;;;;;17.73;53.86;99940.63;5079881;28;45301;-58
2021/08/07 04:20:29;;;;;;;;;1.00;1.00;;;;;17.70;53.77;99940.81;5061614;28;45644;-58
2021/08/07 04:22:55;;;;;;;;;2.75;1.75;;;;;17.68;53.77;99934.72;5078520;28;47018;-57
2021/08/07 04:25:20;;;;;;;;;3.00;2.00;;;;;17.68;53.78;99937.38;5080030;28;45314;-58
2021/08/07 04:27:45;;;;;;;;;1.50;1.50;;;;;17.65;53.83;99932.25;5079857;28;45377;-57
2021/08/07 04:30:11;;;;;;;;;2.25;2.25;;;;;17.64;53.60;99930.53;5079946;28;45416;-57
2021/08/07 04:32:37;;;;;;;;;1.75;1.75;;;;;17.66;54.03;99933.94;5079357;28;45959;-57
2021/08/07 04:35:04;;;;;;;;;2.00;1.50;;;;;17.66;53.97;99939.25;5078627;28;45247;-58
2021/08/07 04:37:29;;;;;;;;;5.00;3.00;;;;;17.65;53.89;99934.91;5079842;28;45252;-58
2021/08/07 04:39:55;;;;;;;;;2.75;2.00;;;;;17.64;54.24;99933.19;5079748;28;45553;-57
2021/08/07 04:42:20;;;;;;;;;2.00;2.00;;;;;17.64;53.94;99931.38;5079437;28;45307;-57
2021/08/07 04:44:46;;;;;;;;;2.00;1.50;;;;;17.63;53.89;99928.81;5079767;28;45239;-58
2021/08/07 04:47:12;;;;;;;;;2.25;2.00;;;;;17.58;54.12;99925.56;5078338;28;45430;-57
2021/08/07 04:49:37;;;;;;;;;1.25;1.25;;;;;17.62;53.82;99927.09;5078094;28;45262;-57
2021/08/07 04:52:04;;;;;;;;;2.25;2.00;;;;;17.60;53.92;99929.00;5079226;28;46480;-57
2021/08/07 04:54:30;;;;;;;;;6.50;2.00;;;;;17.60;54.17;99924.53;5079749;28;45562;-57
2021/08/07 04:56:55;;;;;;;;;4.25;2.50;;;;;17.57;54.05;99924.69;5079356;28;45257;-57
2021/08/07 04:59:20;;;;;;;;;3.50;2.00;;;;;17.57;54.22;99916.72;5079760;28;45323;-57
2021/08/07 05:01:46;;;;;;;;;4.50;2.75;;;;;17.58;54.21;99922.91;5080613;27;46132;-57
2021/08/07 05:04:12;;;;;;;;;3.75;2.50;;;;;17.53;54.28;99913.41;5081556;28;45394;-57
2021/08/07 05:06:39;;;;;;;;;1.75;1.75;;;;;17.57;54.08;99922.03;5083091;28;45386;-57
2021/08/07 05:09:05;;;;;;;;;1.75;1.75;;;;;17.57;54.36;99924.69;5082989;28;45423;-57
2021/08/07 05:11:30;;;;;;;;;2.00;2.00;;;;;17.54;54.60;99920.41;5082738;27;45408;-57
2021/08/07 05:13:55;;;;;;;;;2.50;2.00;;;;;17.52;54.45;99924.97;5082654;28;45192;-57
2021/08/07 05:16:21;;;;;;;;;1.75;1.75;;;;;17.51;54.30;99917.94;5083002;28;45170;-57
2021/08/07 05:18:46;;;;;;;;;2.00;2.00;;;;;17.50;54.59;99916.22;5082786;28;45192;-57
2021/08/07 05:21:11;;;;;;;;;2.75;2.75;;;;;17.49;54.43;99919.81;5081132;27;47242;-57
2021/08/07 05:23:37;;;;;;;;;3.50;1.75;;;;;17.47;54.71;99905.78;5082792;28;45224;-57
2021/08/07 05:26:02;;;;;;;;;4.00;2.25;;;;;17.48;54.54;99903.97;5082809;28;45247;-57
2021/08/07 05:28:28;;;;;;;;;1.00;1.00;;;;;17.41;54.68;99897.28;5082719;28;45531;-57
2021/08/07 05:30:53;;;;;;;;;5.00;2.25;;;;;17.44;54.57;99905.09;5082387;27;46132;-57
2021/08/07 05:33:19;;;;;;;;;1.25;1.25;;;;;17.44;54.68;99902.44;5082199;28;45291;-57
2021/08/07 05:35:44;;;;;;;;;2.25;1.75;;;;;17.43;54.52;99888.28;5081168;28;45330;-57
2021/08/07 05:38:10;;;;;;;;;2.00;2.00;;;;;17.40;54.93;99887.63;5082570;28;45430;-57
2021/08/07 05:40:36;;;;;;;;;3.00;2.00;;;;;17.42;54.93;99889.25;5082199;27;45983;-57
2021/08/07 05:43:01;;;;;;;;;4.00;3.00;;;;;17.41;54.82;99890.19;5082275;28;45405;-57
2021/08/07 05:45:26;;;;;;;;;2.25;2.25;;;;;17.41;54.76;99889.31;5082478;28;45341;-57
2021/08/07 05:47:52;;;;;;;;;3.00;1.50;;;;;17.41;54.73;99889.31;5082216;28;45516;-57
2021/08/07 05:50:17;;;;;;;;;3.75;2.75;;;;;17.41;54.85;99897.28;5080855;27;46147;-57
2021/08/07 05:52:43;;;;;;;;;4.00;2.00;;;;;17.41;54.82;99897.28;5082228;28;45277;-57
2021/08/07 05:55:09;;;;;;;;;4.50;3.00;;;;;17.40;55.05;99899.09;5082206;28;45535;-57
2021/08/07 05:57:34;;;;;;;;;6.00;3.00;;;;;17.39;54.55;99884.09;5080809;28;45596;-57
2021/08/07 06:00:01;;;;;;;;;2.50;1.75;;;;;17.38;54.86;99885.03;5080468;27;48248;-57
2021/08/07 06:02:32;;;;;;;;;2.75;2.75;;;;;17.39;55.25;99892.06;5080586;28;45265;-58
2021/08/07 06:04:57;;;;;;;;;3.00;2.00;;;;;17.41;54.93;99891.97;5081984;28;45330;-57
2021/08/07 06:07:23;;;;;;;;;3.25;1.50;;;;;17.37;55.29;99892.16;5082020;28;45222;-57
2021/08/07 06:09:48;;;;;;;;;1.00;1.00;;;;;17.40;55.21;99892.94;5080401;27;45267;-57
2021/08/07 06:12:14;;;;;;;;;2.00;1.75;;;;;17.38;55.37;99885.91;5080883;28;45153;-56
2021/08/07 06:14:39;;;;;;;;;3.50;1.00;;;;;17.37;55.31;99886.84;5080601;28;45495;-57
2021/08/07 06:17:05;;;;;;;;;3.50;2.00;;;;;17.37;55.64;99892.16;5080747;28;45515;-57
2021/08/07 06:19:30;;;;;;;;;3.00;3.00;;;;;17.39;55.51;99900.03;5080107;28;47093;-56
2021/08/07 06:21:55;;;;;;;;;4.00;2.25;;;;;17.38;55.45;99898.31;5081390;28;45492;-57
2021/08/07 06:24:21;;;;;;;;;2.75;1.75;;;;;17.38;55.36;99903.63;5080412;28;45367;-56
2021/08/07 06:26:46;;;;;;;;;2.50;2.00;;;;;17.38;55.48;99895.66;5080587;28;45461;-57
2021/08/07 06:29:12;;;;;;;;;4.00;3.00;;;;;17.40;55.40;99899.09;5080182;28;46710;-57
2021/08/07 06:31:37;;;;;;;;;2.00;2.00;;;;;17.39;55.69;99897.38;5081775;27;45262;-57
2021/08/07 06:34:03;;;;;;;;;1.75;1.25;;;;;17.39;55.76;99897.38;5080071;28;45493;-59
2021/08/07 06:36:30;;;;;;;;;2.75;2.00;;;;;17.42;55.89;99893.69;5081494;28;45319;-57
2021/08/07 06:38:55;;;;;;;;;2.25;2.25;;;;;17.42;55.78;99891.03;5081375;28;45307;-58
2021/08/07 06:41:21;;;;;;;;;2.00;2.00;;;;;17.41;55.73;99887.53;5081481;27;45322;-58
2021/08/07 06:43:46;;;;;;;;;4.75;2.25;;;;;17.40;56.11;99877.00;5081342;28;45277;-58
2021/08/07 06:46:12;;;;;;;;;3.00;1.75;;;;;17.42;55.81;99883.94;5081617;28;45402;-57
2021/08/07 06:48:37;;;;;;;;;2.00;1.00;;;;;17.40;55.88;99879.66;5080877;28;46278;-57
2021/08/07 06:51:05;;;;;;;;;3.00;3.00;;;;;17.43;55.97;99875.00;5081540;27;45275;-57
2021/08/07 06:53:31;;;;;;;;;2.25;2.00;;;;;17.41;56.33;99878.69;5081092;28;45430;-57
2021/08/07 06:55:57;;;;;;;;;2.75;2.00;;;;;17.44;56.28;99876.72;5096837;27;45653;-57
2021/08/07 06:58:22;;;;;;;;;4.50;2.25;;;;;17.44;56.38;99873.22;5080979;28;46122;-57
2021/08/07 07:00:47;;;;;;;;;3.00;2.50;;;;;17.49;56.49;99869.34;5081091;27;45246;-58
2021/08/07 07:03:13;;;;;;;;;3.75;1.75;;;;;17.49;56.07;99884.44;5079497;28;45326;-57
2021/08/07 07:05:38;;;;;;;;;1.75;1.75;;;;;17.50;56.04;99876.38;5079821;28;45355;-57
2021/08/07 07:08:04;;;;;;;;;3.75;2.00;;;;;17.48;56.56;99870.31;5080490;28;46240;-57
2021/08/07 07:10:30;;;;;;;;;2.25;2.00;;;;;17.54;56.47;99883.22;5080888;28;45337;-57
2021/08/07 07:12:56;;;;;;;;;1.00;1.00;;;;;17.56;56.57;99885.81;5080745;28;45433;-57
2021/08/07 07:15:22;;;;;;;;;4.00;2.00;;;;;17.59;56.37;99877.66;5080819;28;45513;-57
2021/08/07 07:17:48;;;;;;;;;1.00;1.00;;;;;17.62;56.79;99879.28;5062237;28;45989;-57
2021/08/07 07:20:14;;;;;;;;;4.00;1.00;;;;;17.67;56.36;99880.75;5079340;27;45227;-57
2021/08/07 07:22:39;;;;;;;;;2.00;2.00;;;;;17.65;56.62;99873.81;5080726;28;45314;-57
2021/08/07 07:25:07;;;;;;;;;4.50;3.50;;;;;17.69;56.61;99878.84;5080511;28;45417;-57
2021/08/07 07:27:32;;;;;;;;;3.00;1.00;;;;;17.73;56.71;99876.84;5080358;28;46273;-58
2021/08/07 07:29:58;;;;;;;;;4.00;2.50;;;;;17.77;56.42;99870.41;5080567;27;45369;-58
2021/08/07 07:32:23;;;;;;;;;1.25;1.00;;;;;17.85;56.59;99876.16;5079076;28;45299;-58
2021/08/07 07:34:49;;;;;;;;;4.50;2.00;;;;;17.87;56.51;99884.91;5079419;28;45310;-58
2021/08/07 07:37:14;;;;;;;;;2.00;2.00;;;;;17.95;56.60;99870.31;5080411;28;46951;-58
2021/08/07 07:39:40;;;;;;;;;4.00;3.00;;;;;17.97;56.74;99858.66;5080575;28;45332;-57
2021/08/07 07:42:05;;;;;;;;;2.25;1.00;;;;;18.08;56.67;99862.50;5079029;27;45528;-58
2021/08/07 07:44:30;;;;;;;;;5.25;2.25;;;;;18.11;56.63;99859.63;5080602;28;45244;-57
2021/08/07 07:46:56;;;;;;;;;4.00;2.00;;;;;18.14;56.93;99856.81;5080144;28;49851;-57
2021/08/07 07:49:22;;;;;;;;;4.75;3.00;;;;;18.26;56.67;99853.38;5080202;28;45296;-56
2021/08/07 07:51:47;;;;;;;;;3.00;3.00;;;;;18.30;56.92;99848.75;5062173;28;45396;-57
2021/08/07 07:54:13;;;;;;;;;2.00;1.75;;;;;18.39;56.87;99844.69;5080647;28;45309;-57
2021/08/07 07:56:38;;;;;;;;;3.50;1.00;;;;;18.47;56.64;99845.06;5079757;28;45963;-57
2021/08/07 07:59:03;;;;;;;;;1.75;1.00;;;;;18.55;56.60;99848.09;5078422;28;45260;-57
2021/08/07 08:01:29;;;;;;;;;1.00;1.00;;;;;18.59;56.80;99840.78;5078793;27;45316;-57
2021/08/07 08:03:54;;;;;;;;;1.00;1.00;;;;;18.63;56.77;99850.31;5079724;28;45423;-57
2021/08/07 08:06:20;;;;;;;;;2.00;1.75;;;;;18.68;56.93;99841.06;5079882;28;45501;-57
2021/08/07 08:08:45;;;;;;;;;3.00;2.00;;;;;18.77;56.53;99837.00;5080402;28;45247;-57
2021/08/07 08:11:10;;;;;;;;;1.00;1.00;;;;;18.86;56.28;99850.69;5078641;27;45213;-57
2021/08/07 08:13:36;;;;;;;;;1.75;1.00;;;;;18.91;56.53;99836.16;5080178;28;45211;-57
2021/08/07 08:16:01;;;;;;;;;2.00;2.00;;;;;18.93;56.21;99844.03;5079827;28;46271;-57
2021/08/07 08:18:26;;;;;;;;;4.00;2.25;;;;;18.97;56.71;99838.41;5079772;28;45447;-57
2021/08/07 08:20:52;;;;;;;;;2.50;2.00;;;;;19.05;56.58;99831.75;5079855;28;45317;-57
2021/08/07 08:23:17;;;;;;;;;3.00;3.00;;;;;19.14;56.31;99816.06;5080326;28;45227;-57
2021/08/07 08:25:43;;;;;;;;;1.00;1.00;;;;;19.19;56.52;99825.53;5079867;28;46126;-58
2021/08/07 08:28:08;;;;;;;;;1.00;1.00;;;;;19.26;56.16;99821.53;5079815;27;45260;-58
2021/08/07 08:30:35;;;;;;;;;1.33;1.00;;;;;19.33;56.46;99809.50;5079954;28;45583;-58
2021/08/07 08:33:00;;;;;;;;;3.00;1.00;;;;;19.37;55.96;99803.03;5078116;28;46107;-58
2021/08/07 08:35:25;;;;;;;;;3.00;2.00;;;;;19.47;55.85;99806.81;5080215;27;45561;-58
2021/08/07 08:37:51;;;;;;;;;2.00;2.00;;;;;19.51;56.17;99803.91;5083657;28;45375;-58
2021/08/07 08:40:16;;;;;;;;;1.00;1.00;;;;;19.57;56.05;99791.06;5081986;28;45256;-58
2021/08/07 08:42:42;;;;;;;;;0.67;0.33;;;;;19.63;55.46;99781.78;5083187;28;45477;-58
2021/08/07 08:45:09;;;;;;;;;3.00;2.00;;;;;19.73;56.05;99792.69;5081693;28;46033;-58
2021/08/07 08:47:40;;;;;;;;;3.00;2.00;;;;;19.77;55.52;99784.38;5083180;28;45231;-58
2021/08/07 08:50:07;;;;;;;;;2.67;2.33;;;;;19.84;55.88;99789.34;5082744;27;45293;-58
2021/08/07 08:52:36;;;;;;;;;3.67;2.67;;;;;19.91;55.90;99795.94;5081630;28;46448;-58
2021/08/07 08:55:02;;;;;;;;;1.67;1.67;;;;;20.00;55.63;99789.13;5082989;28;46473;-58
2021/08/07 08:57:27;;;;;;;;;2.25;1.50;;;;;20.06;55.26;99783.38;5082896;28;45252;-58
2021/08/07 08:59:54;;;;;;;;;2.00;1.00;;;;;20.07;55.26;99772.59;5082939;27;45376;-58
2021/08/07 09:02:19;;;;;;;;;1.00;1.00;;;;;20.12;55.66;99772.28;5082971;28;45345;-58
2021/08/07 09:04:45;;;;;;;;;4.33;1.00;;;;;20.15;55.73;99774.75;5082781;28;46203;-58
2021/08/07 09:07:14;;;;;;;;;1.00;1.00;;;;;20.23;55.01;99760.88;5083073;28;45279;-58
2021/08/07 09:09:45;;;;;;;;;2.25;1.00;;;;;20.26;55.39;99753.50;5082973;28;45224;-58
2021/08/07 09:12:12;;;;;;;;;1.00;1.00;;;;;20.28;55.05;99756.06;5082674;28;45325;-58
2021/08/07 09:14:47;;;;;;;;;1.00;1.00;;;;;20.30;54.78;99771.00;5082437;28;45336;-58
2021/08/07 09:17:18;;;;;;;;;1.00;1.00;;;;;20.36;55.32;99763.53;5082726;28;45307;-58
2021/08/07 09:19:43;;;;;;;;;2.00;2.00;;;;;20.40;54.56;99757.88;5082698;27;45387;-58
2021/08/07 09:22:22;;;;;;;;;2.67;1.67;;;;;20.43;55.22;99757.63;5082532;28;45581;-58
2021/08/07 09:24:56;;;;;;;;;2.00;1.00;;;;;20.46;55.18;99762.78;5081128;28;46956;-58
2021/08/07 09:27:49;;;;;;;;;1.67;1.67;;;;;20.49;55.18;99761.69;5082405;28;45326;-58
2021/08/07 09:30:17;;;;;;;;;1.00;1.00;;;;;20.48;54.69;99756.44;5082459;28;45337;-58
2021/08/07 09:32:48;;;;;;;;;1.67;1.67;;;;;20.44;55.07;99753.19;5082055;28;45369;-58
2021/08/07 09:35:16;;;;;;;;;1.33;1.33;;;;;20.41;55.44;99751.53;5082340;27;45464;-58
2021/08/07 09:37:42;;;;;;;;;1.25;1.25;;;;;20.40;55.12;99759.66;5082287;27;45431;-58
2021/08/07 09:40:10;;;;;;;;;1.25;1.00;;;;;20.38;55.68;99761.63;5081017;27;45344;-58
2021/08/07 09:42:52;;;;;;;;;3.00;2.00;;;;;20.35;55.63;99751.13;5082048;28;45337;-58
2021/08/07 09:45:24;;;;;;;;;3.50;2.75;;;;;20.34;55.81;99758.31;5082122;28;45434;-57
2021/08/07 09:48:01;;;;;;;;;4.75;2.75;;;;;20.32;55.86;99764.72;5080614;28;45369;-57
2021/08/07 09:50:29;;;;;;;;;1.25;1.25;;;;;20.34;55.60;99760.09;5081905;28;45420;-57
2021/08/07 09:52:55;;;;;;;;;2.00;1.00;;;;;20.36;55.83;99761.69;5082144;28;45572;-57
2021/08/07 09:55:21;;;;;;;;;2.00;1.75;;;;;20.36;55.56;99763.53;5081991;28;45377;-57
2021/08/07 09:57:46;;;;;;;;;2.00;2.00;;;;;20.38;55.65;99751.78;5080671;28;45263;-57
2021/08/07 10:00:12;;;;;;;;;1.00;1.00;;;;;20.42;55.43;99761.25;5081992;27;45499;-57
2021/08/07 10:02:38;;;;;;;;;1.00;1.00;;;;;20.49;55.84;99752.81;5080622;28;45283;-57
2021/08/07 10:05:11;;;;;;;;;2.00;1.50;;;;;20.52;55.93;99763.28;5081806;28;45934;-58
2021/08/07 10:07:37;;;;;;;;;3.00;2.00;;;;;20.52;55.58;99761.47;5081765;27;45226;-58
2021/08/07 10:10:19;;;;;;;;;1.00;1.00;;;;;20.52;55.81;99764.13;5080397;27;45220;-58
2021/08/07 10:12:45;;;;;;;;;1.00;1.00;;;;;20.58;55.34;99763.69;5081575;28;45342;-58
2021/08/07 10:15:11;;;;;;;;;2.00;2.00;;;;;20.62;55.53;99759.00;5081390;28;46624;-58
2021/08/07 10:17:38;;;;;;;;;2.00;2.00;;;;;20.63;55.38;99764.22;5081601;28;45185;-57
2021/08/07 10:20:05;;;;;;;;;1.00;1.00;;;;;20.66;55.60;99762.31;5080312;27;45417;-57
2021/08/07 10:22:31;;;;;;;;;2.00;2.00;;;;;20.67;55.43;99758.69;5080010;28;45404;-57
2021/08/07 10:24:59;;;;;;;;;1.00;1.00;;;;;20.60;55.25;99758.25;5081477;28;47134;-58
2021/08/07 10:27:28;;;;;;;;;2.00;0.50;;;;;20.60;55.57;99766.25;5081732;28;45246;-58
2021/08/07 10:29:55;;;;;;;;;3.00;2.00;;;;;20.56;55.45;99748.75;5080191;28;45412;-58
2021/08/07 10:32:21;;;;;;;;;1.75;1.50;;;;;20.52;55.87;99766.81;5081089;28;45343;-57
2021/08/07 10:34:50;;;;;;;;;2.50;1.00;;;;;20.46;55.93;99744.09;5079883;28;46194;-57
2021/08/07 10:37:16;;;;;;;;;3.00;2.00;;;;;20.43;56.08;99732.78;5081501;28;45251;-58
2021/08/07 10:39:41;;;;;;;;;2.67;2.00;;;;;20.43;56.28;99730.97;5080073;28;45236;-57
2021/08/07 10:42:07;;;;;;;;;2.00;2.00;;;;;20.43;56.14;99717.63;5081458;28;45228;-58
2021/08/07 10:44:35;;;;;;;;;3.00;2.00;;;;;20.43;56.00;99714.09;5081605;28;45787;-58
2021/08/07 10:47:01;;;;;;;;;6.00;6.00;;;;;20.41;56.40;99714.19;5079832;28;45295;-58
2021/08/07 10:49:41;;;;;;;;;1.33;1.33;;;;;20.45;56.59;99731.72;5081097;28;45341;-58
2021/08/07 10:52:21;;;;;;;;;5.00;2.00;;;;;20.48;56.34;99733.31;5080968;28;45325;-58
2021/08/07 10:54:52;;;;;;;;;2.33;2.33;;;;;20.52;56.08;99731.28;5081165;28;45390;-58
2021/08/07 10:57:34;;;;;;;;;1.67;1.67;;;;;20.56;56.02;99722.91;5079380;28;45248;-57
2021/08/07 11:00:20;;;;;;;;;3.33;3.00;;;;;20.61;56.12;99722.59;5080522;28;45225;-58
2021/08/07 11:02:46;;;;;;;;;3.00;3.00;;;;;20.67;56.23;99711.47;5079361;28;45543;-58
2021/08/07 11:05:12;;;;;;;;;3.00;2.00;;;;;20.70;56.86;99715.72;5080744;28;45498;-58
2021/08/07 11:07:37;;;;;;;;;3.00;2.00;;;;;20.75;56.82;99734.97;5081021;28;45220;-59
2021/08/07 11:10:05;;;;;;;;;4.00;2.00;;;;;20.83;56.22;99726.41;5080974;28;45227;-59
2021/08/07 11:12:31;;;;;;;;;3.75;2.75;;;;;20.90;56.44;99731.16;5080720;28;45488;-58
2021/08/07 11:14:59;;;;;;;;;2.67;2.00;;;;;20.92;56.35;99723.91;5079275;28;45388;-58
2021/08/07 11:17:30;;;;;;;;;2.67;2.00;;;;;20.96;56.65;99721.03;5080507;28;45309;-58
2021/08/07 11:20:07;;;;;;;;;3.33;2.33;;;;;20.96;56.89;99719.19;5080531;27;45492;-58
2021/08/07 11:22:40;;;;;;;;;3.00;3.00;;;;;20.94;56.78;99716.66;5080268;28;45449;-58
2021/08/07 11:25:14;;;;;;;;;3.00;3.00;;;;;20.96;56.71;99708.50;5080677;28;46115;-58
2021/08/07 11:27:45;;;;;;;;;2.00;2.00;;;;;21.05;56.17;99718.50;5080301;28;45309;-58
2021/08/07 11:30:34;;;;;;;;;1.00;1.00;;;;;21.15;56.61;99699.13;5080779;27;45239;-58
2021/08/07 11:33:00;;;;;;;;;1.00;1.00;;;;;21.28;56.59;99691.88;5080033;27;45315;-58